Time;durP1;ratioP1;P1;durP2;ratioP2;P2;SDS_P1;SDS_P2;PMS_P1;PMS_P2;Temp;Humidity;BMP_temperature;BMP_pressure;BME280_temperature;BME280_humidity;BME280_pressure;Samples;Min_cycle;Max_cycle;Signal;HPM_P1;HPM_P2
2024/01/07 00:01:16;;;;;;;119.25;35.58;;;;;;;3.89;100.00;100520.72;8338364;28;20727;-59
2024/01/07 00:05:16;;;;;;;115.68;35.45;;;;;;;3.92;100.00;100520.50;8337124;28;20072;-59
2024/01/07 00:09:16;;;;;;;115.63;35.03;;;;;;;3.92;100.00;100525.88;8336017;28;20095;-59
2024/01/07 00:13:17;;;;;;;114.85;33.85;;;;;;;3.86;100.00;100525.38;8282994;28;20468;-58
2024/01/07 00:17:17;;;;;;;125.50;35.92;;;;;;;3.92;100.00;100533.00;8288882;28;20044;-59
2024/01/07 00:21:18;;;;;;;110.00;33.45;;;;;;;3.92;100.00;100536.56;8270587;28;20664;-59
2024/01/07 00:25:18;;;;;;;119.82;34.17;;;;;;;3.87;100.00;100537.78;8331302;28;20048;-56
2024/01/07 00:29:19;;;;;;;114.00;34.40;;;;;;;3.86;100.00;100536.94;8344256;28;20032;-59
2024/01/07 00:33:19;;;;;;;118.32;34.30;;;;;;;3.88;100.00;100535.00;8335398;28;20025;-59
2024/01/07 00:37:20;;;;;;;111.03;33.78;;;;;;;3.93;100.00;100527.56;8336606;28;20276;-59
2024/01/07 00:41:20;;;;;;;109.82;33.53;;;;;;;3.90;100.00;100538.47;8336298;28;20545;-59
2024/01/07 00:45:21;;;;;;;125.95;37.35;;;;;;;3.94;100.00;100550.66;8314419;28;20116;-59
2024/01/07 00:49:22;;;;;;;120.90;35.70;;;;;;;3.91;100.00;100539.34;8335153;28;20040;-59
2024/01/07 00:53:22;;;;;;;118.32;34.42;;;;;;;3.89;100.00;100552.78;8336059;28;20370;-59
2024/01/07 00:57:23;;;;;;;128.07;35.40;;;;;;;3.89;100.00;100550.13;8374422;28;20067;-57
2024/01/07 01:01:26;;;;;;;108.82;31.70;;;;;;;3.92;100.00;100552.59;8388564;28;20028;-56
2024/01/07 01:05:26;;;;;;;112.07;33.58;;;;;;;3.94;100.00;100553.34;8391180;28;20512;-57
2024/01/07 01:09:28;;;;;;;99.93;32.15;;;;;;;3.95;100.00;100557.75;8389764;28;20376;-57
2024/01/07 01:13:29;;;;;;;102.38;29.95;;;;;;;3.95;100.00;100557.75;8368724;28;20036;-57
2024/01/07 01:17:30;;;;;;;108.22;33.92;;;;;;;3.98;100.00;100559.38;8390616;28;20109;-60
2024/01/07 01:21:30;;;;;;;92.10;30.50;;;;;;;4.02;100.00;100572.44;8389630;28;20447;-58
2024/01/07 01:25:31;;;;;;;117.35;31.90;;;;;;;4.02;100.00;100569.78;8392604;28;20045;-59
2024/01/07 01:29:31;;;;;;;101.63;32.85;;;;;;;4.04;100.00;100577.69;8341225;28;20032;-56
2024/01/07 01:33:31;;;;;;;112.68;33.05;;;;;;;4.01;100.00;100578.75;8335518;28;20037;-55
2024/01/07 01:37:33;;;;;;;113.82;33.03;;;;;;;4.05;100.00;100576.72;8334900;28;20312;-55
2024/01/07 01:41:33;;;;;;;113.68;33.22;;;;;;;4.00;100.00;100582.38;8334566;28;20060;-57
2024/01/07 01:45:34;;;;;;;112.05;33.03;;;;;;;4.01;100.00;100584.09;8334837;28;20033;-57
2024/01/07 01:49:36;;;;;;;112.15;33.70;;;;;;;4.02;100.00;100591.16;8333349;28;20451;-56
2024/01/07 01:53:37;;;;;;;116.03;33.83;;;;;;;4.02;100.00;100588.50;8333534;28;20279;-58
2024/01/07 01:57:39;;;;;;;128.80;34.30;;;;;;;4.03;100.00;100592.88;8377910;28;20040;-57
2024/01/07 02:01:40;;;;;;;109.57;35.13;;;;;;;4.00;100.00;100587.72;8339644;28;20037;-56
2024/01/07 02:05:40;;;;;;;118.65;34.78;;;;;;;4.03;100.00;100598.22;8335309;28;20064;-58
2024/01/07 02:09:41;;;;;;;117.88;34.53;;;;;;;4.07;100.00;100602.44;8335042;28;20040;-56
2024/01/07 02:13:42;;;;;;;103.28;33.45;;;;;;;4.07;100.00;100606.91;8336225;28;20032;-56
2024/01/07 02:17:43;;;;;;;106.80;33.47;;;;;;;4.06;100.00;100603.38;8334706;28;20485;-57
2024/01/07 02:21:43;;;;;;;93.38;30.52;;;;;;;4.09;100.00;100603.19;8378024;28;20033;-59
2024/01/07 02:25:45;;;;;;;105.53;32.55;;;;;;;4.08;100.00;100609.50;8386918;28;20045;-57
2024/01/07 02:29:45;;;;;;;106.70;33.20;;;;;;;4.07;100.00;100615.81;8386224;28;20059;-59
2024/01/07 02:33:46;;;;;;;106.05;31.00;;;;;;;4.08;100.00;100616.66;8340501;28;20120;-59
2024/01/07 02:37:46;;;;;;;96.13;30.05;;;;;;;4.14;100.00;100621.63;8363615;28;20040;-58
2024/01/07 02:41:47;;;;;;;91.47;30.08;;;;;;;4.13;100.00;100629.75;8391662;28;20094;-56
2024/01/07 02:45:47;;;;;;;100.38;30.88;;;;;;;4.13;100.00;100625.25;8339070;28;20272;-59
2024/01/07 02:49:48;;;;;;;85.60;27.95;;;;;;;4.18;100.00;100628.50;8339263;28;20178;-59
2024/01/07 02:53:48;;;;;;;84.70;26.90;;;;;;;4.18;100.00;100617.81;8339662;28;20200;-59
2024/01/07 02:57:49;;;;;;;79.07;26.77;;;;;;;4.18;100.00;100627.63;8339067;28;20162;-59
2024/01/07 03:01:50;;;;;;;68.13;25.13;;;;;;;4.19;100.00;100629.34;8298914;28;20128;-59
2024/01/07 03:05:51;;;;;;;68.05;24.77;;;;;;;4.20;100.00;100633.75;8297822;28;20111;-59
2024/01/07 03:09:51;;;;;;;59.85;23.02;;;;;;;4.22;100.00;100639.84;8297263;28;20719;-59
2024/01/07 03:13:52;;;;;;;56.60;22.50;;;;;;;4.24;100.00;100644.13;8339139;28;20426;-59
2024/01/07 03:17:52;;;;;;;47.38;21.27;;;;;;;4.25;100.00;100645.00;8338152;28;20119;-59
2024/01/07 03:21:52;;;;;;;46.17;20.33;;;;;;;4.28;100.00;100650.16;8337291;28;20304;-59
2024/01/07 03:25:54;;;;;;;51.25;20.90;;;;;;;4.25;100.00;100645.00;8336669;28;20037;-59
2024/01/07 03:29:55;;;;;;;56.75;22.17;;;;;;;4.26;100.00;100641.38;8386971;28;20056;-60
2024/01/07 03:33:55;;;;;;;56.88;23.05;;;;;;;4.27;100.00;100643.09;8393475;28;20047;-58
2024/01/07 03:37:56;;;;;;;52.10;23.08;;;;;;;4.28;100.00;100643.00;8393942;28;20487;-57
2024/01/07 03:41:56;;;;;;;62.58;25.00;;;;;;;4.29;100.00;100651.88;8393248;28;20132;-57
2024/01/07 03:45:57;;;;;;;59.08;24.63;;;;;;;4.29;100.00;100649.19;8392936;28;20044;-59
2024/01/07 03:49:57;;;;;;;64.05;26.70;;;;;;;4.32;100.00;100652.56;8391211;28;20542;-57
2024/01/07 03:53:58;;;;;;;60.47;25.27;;;;;;;4.28;100.00;100655.53;8395217;28;20046;-57
2024/01/07 03:57:58;;;;;;;55.15;24.08;;;;;;;4.25;100.00;100659.25;8392413;28;20066;-58
2024/01/07 04:01:58;;;;;;;55.63;22.50;;;;;;;4.24;100.00;100652.16;8392217;28;20099;-59
2024/01/07 04:05:59;;;;;;;48.95;21.38;;;;;;;4.24;100.00;100659.34;8392791;28;20533;-57
2024/01/07 04:10:00;;;;;;;43.13;18.90;;;;;;;4.26;100.00;100657.44;8388636;28;20040;-57
2024/01/07 04:14:00;;;;;;;43.83;19.75;;;;;;;4.21;100.00;100659.56;8376266;28;20101;-60
2024/01/07 04:18:03;;;;;;;46.15;18.08;;;;;;;4.18;100.00;100659.75;8392017;28;20040;-59
2024/01/07 04:22:03;;;;;;;44.38;18.73;;;;;;;4.16;100.00;100665.19;8336128;28;20042;-57
2024/01/07 04:26:04;;;;;;;42.55;18.38;;;;;;;4.17;100.00;100679.44;8337509;28;20047;-57
2024/01/07 04:30:06;;;;;;;39.65;18.42;;;;;;;4.13;100.00;100670.75;8337195;28;20364;-58
2024/01/07 04:34:06;;;;;;;43.17;19.35;;;;;;;4.13;100.00;100675.22;8335893;28;20055;-58
2024/01/07 04:38:08;;;;;;;46.22;18.98;;;;;;;4.13;100.00;100683.25;8329086;28;20280;-58
2024/01/07 04:42:08;;;;;;;49.95;20.05;;;;;;;4.13;100.00;100684.13;8293117;28;20047;-57
2024/01/07 04:46:11;;;;;;;40.35;18.40;;;;;;;4.13;100.00;100689.47;8293700;28;20051;-56
2024/01/07 04:50:13;;;;;;;44.47;18.38;;;;;;;4.12;100.00;100686.88;8334264;28;20475;-57
2024/01/07 04:54:14;;;;;;;46.15;18.73;;;;;;;4.00;100.00;100694.69;8336139;28;20032;-57
2024/01/07 04:58:14;;;;;;;45.65;19.45;;;;;;;4.00;100.00;100704.56;8335450;28;20063;-55
2024/01/07 05:02:15;;;;;;;52.95;21.13;;;;;;;3.96;100.00;100703.00;8331579;28;20052;-56
2024/01/07 05:06:16;;;;;;;60.40;21.05;;;;;;;3.96;100.00;100705.69;8334608;28;20028;-59
2024/01/07 05:10:16;;;;;;;46.38;19.80;;;;;;;3.96;100.00;100713.72;8389779;28;20040;-58
2024/01/07 05:14:16;;;;;;;49.03;19.98;;;;;;;3.95;100.00;100718.22;8390246;28;20056;-58
2024/01/07 05:18:17;;;;;;;44.05;18.63;;;;;;;3.91;100.00;100719.34;8390100;28;20130;-57
2024/01/07 05:22:17;;;;;;;45.53;17.73;;;;;;;3.90;100.00;100724.78;8390092;28;21520;-58
2024/01/07 05:26:18;;;;;;;38.97;17.60;;;;;;;3.96;100.00;100725.28;8389851;28;20522;-59
2024/01/07 05:30:18;;;;;;;42.25;17.38;;;;;;;3.97;100.00;100732.34;8389489;28;20521;-62
2024/01/07 05:34:19;;;;;;;41.05;17.13;;;;;;;3.96;100.00;100733.31;8390127;28;20048;-57
2024/01/07 05:38:19;;;;;;;43.30;18.38;;;;;;;3.97;100.00;100737.69;8389444;28;20048;-58
2024/01/07 05:42:20;;;;;;;43.13;18.35;;;;;;;3.93;100.00;100741.50;8391203;28;20093;-63
2024/01/07 05:46:20;;;;;;;41.88;17.83;;;;;;;3.89;100.00;100744.47;8389460;28;20390;-57
2024/01/07 05:50:21;;;;;;;46.33;18.55;;;;;;;3.88;100.00;100750.78;8314957;28;20040;-57
2024/01/07 05:54:22;;;;;;;44.20;19.48;;;;;;;3.87;100.00;100751.69;8334640;28;20315;-56
2024/01/07 05:58:22;;;;;;;45.33;20.33;;;;;;;3.84;100.00;100758.09;8336630;28;20080;-56
2024/01/07 06:02:24;;;;;;;45.78;19.55;;;;;;;3.84;100.00;100763.47;8341075;28;20049;-57
2024/01/07 06:06:24;;;;;;;44.67;20.02;;;;;;;3.79;100.00;100764.69;8341308;28;20435;-56
2024/01/07 06:10:25;;;;;;;51.72;20.52;;;;;;;3.76;100.00;100773.75;8317562;28;20122;-56
2024/01/07 06:14:25;;;;;;;47.97;21.55;;;;;;;3.71;100.00;100777.66;8310933;28;20510;-56
2024/01/07 06:18:26;;;;;;;53.50;21.83;;;;;;;3.67;100.00;100781.47;8340106;28;20032;-58
2024/01/07 06:22:26;;;;;;;51.47;21.77;;;;;;;3.64;100.00;100782.50;8341181;28;20769;-56
2024/01/07 06:26:27;;;;;;;45.20;19.77;;;;;;;3.71;100.00;100794.56;8340240;28;20071;-56
2024/01/07 06:30:27;;;;;;;48.17;21.08;;;;;;;3.69;100.00;100790.25;8320731;28;20032;-57
2024/01/07 06:34:28;;;;;;;48.47;20.25;;;;;;;3.74;100.00;100799.72;8352137;28;20129;-59
2024/01/07 06:38:28;;;;;;;46.92;20.90;;;;;;;3.67;100.00;100809.06;8333564;28;20033;-56
2024/01/07 06:42:29;;;;;;;63.78;23.80;;;;;;;3.63;100.00;100812.84;8340369;28;20040;-57
2024/01/07 06:46:29;;;;;;;56.90;24.48;;;;;;;3.59;100.00;100815.78;8339914;28;20051;-56
2024/01/07 06:50:30;;;;;;;55.70;24.73;;;;;;;3.56;100.00;100824.84;8339509;28;20037;-59
2024/01/07 06:54:30;;;;;;;62.28;27.00;;;;;;;3.57;100.00;100834.59;8339691;28;20093;-57
2024/01/07 06:58:32;;;;;;;59.30;26.60;;;;;;;3.56;100.00;100838.22;8339721;28;20334;-58
2024/01/07 07:02:32;;;;;;;58.65;25.25;;;;;;;3.47;100.00;100837.88;8354106;28;20036;-57
2024/01/07 07:06:33;;;;;;;60.20;27.23;;;;;;;3.48;100.00;100850.31;8337544;28;20277;-60
2024/01/07 07:10:33;;;;;;;55.20;24.75;;;;;;;3.52;100.00;100855.41;8339808;28;20040;-59
2024/01/07 07:14:34;;;;;;;55.15;25.52;;;;;;;3.53;100.00;100862.44;8321368;28;20312;-60
2024/01/07 07:18:35;;;;;;;61.67;26.75;;;;;;;3.54;100.00;100869.50;8338166;28;20287;-59
2024/01/07 07:22:35;;;;;;;56.60;25.70;;;;;;;3.58;100.00;100871.09;8339035;28;20032;-57
2024/01/07 07:26:40;;;;;;;57.78;25.10;;;;;;;3.58;100.00;100876.44;8303488;28;20052;-57
2024/01/07 07:30:41;;;;;;;57.47;24.60;;;;;;;3.54;100.00;100876.69;8327439;28;20538;-57
2024/01/07 07:34:41;;;;;;;53.05;23.98;;;;;;;3.46;100.00;100885.16;8339217;28;20036;-58
2024/01/07 07:38:41;;;;;;;54.38;24.30;;;;;;;3.56;100.00;100902.38;8338523;28;20072;-57
2024/01/07 07:42:43;;;;;;;48.97;21.27;;;;;;;3.48;100.00;100899.25;8331108;28;20074;-57
2024/01/07 07:46:43;;;;;;;50.75;22.95;;;;;;;3.48;100.00;100915.28;8334619;28;20045;-57
2024/01/07 07:50:44;;;;;;;48.72;22.58;;;;;;;3.48;100.00;100923.31;8364150;28;20119;-56
2024/01/07 07:54:44;;;;;;;46.45;20.40;;;;;;;3.44;100.00;100924.44;8390348;28;20491;-55
2024/01/07 07:58:45;;;;;;;47.40;22.20;;;;;;;3.50;100.00;100924.09;8390434;28;20032;-58
2024/01/07 08:02:45;;;;;;;48.60;21.33;;;;;;;3.47;100.00;100929.63;8378421;28;20127;-58
2024/01/07 08:06:46;;;;;;;48.05;22.67;;;;;;;3.48;100.00;100931.31;8387263;28;20048;-58
2024/01/07 08:10:46;;;;;;;43.22;21.38;;;;;;;3.46;100.00;100941.25;8377800;28;20082;-55
2024/01/07 08:14:47;;;;;;;50.47;23.23;;;;;;;3.48;100.00;100947.38;8385360;28;20067;-58
2024/01/07 08:18:47;;;;;;;49.97;23.10;;;;;;;3.49;100.00;100949.09;8381070;28;23736;-57
2024/01/07 08:22:48;;;;;;;54.28;24.27;;;;;;;3.47;100.00;100961.69;8388419;28;20063;-59
2024/01/07 08:26:48;;;;;;;47.13;21.90;;;;;;;3.42;100.00;100966.41;8387264;28;20106;-57
2024/01/07 08:30:51;;;;;;;54.38;24.60;;;;;;;3.44;100.00;100972.53;8388759;28;20045;-58
2024/01/07 08:34:51;;;;;;;44.03;20.30;;;;;;;3.46;100.00;100981.34;8372414;28;20086;-57
2024/01/07 08:38:52;;;;;;;42.50;19.80;;;;;;;3.53;100.00;100980.06;8389893;28;20084;-63
2024/01/07 08:42:53;;;;;;;43.97;20.23;;;;;;;3.53;100.00;100993.41;8389800;28;20050;-58
2024/01/07 08:46:54;;;;;;;37.42;18.83;;;;;;;3.47;100.00;100992.88;8384481;28;20037;-62
2024/01/07 08:50:54;;;;;;;41.85;19.85;;;;;;;3.50;100.00;100996.25;8388838;28;20154;-60
2024/01/07 08:54:55;;;;;;;40.00;20.15;;;;;;;3.41;100.00;101002.09;8386593;28;20253;-65
2024/01/07 08:59:15;;;;;;;42.80;20.40;;;;;;;3.39;100.00;101003.16;8387999;28;20037;-64
2024/01/07 09:03:16;;;;;;;45.65;20.60;;;;;;;3.33;100.00;101008.81;8218749;28;20046;-59
2024/01/07 09:07:16;;;;;;;47.33;22.55;;;;;;;3.32;100.00;101015.97;8300987;28;20052;-62
2024/01/07 09:11:19;;;;;;;46.85;21.92;;;;;;;3.31;100.00;101024.94;8386141;28;20101;-58
2024/01/07 09:15:21;;;;;;;47.08;22.52;;;;;;;3.31;100.00;101029.41;8379768;28;20415;-58
2024/01/07 09:19:22;;;;;;;48.10;22.90;;;;;;;3.27;100.00;101034.03;8382130;28;20123;-58
2024/01/07 09:23:23;;;;;;;51.15;23.88;;;;;;;3.29;100.00;101032.16;8380366;28;20097;-59
2024/01/07 09:27:23;;;;;;;49.70;21.25;;;;;;;3.34;100.00;101040.81;8382110;28;20055;-56
2024/01/07 09:31:23;;;;;;;47.15;21.27;;;;;;;3.32;100.00;101041.81;8386678;28;20039;-57
2024/01/07 09:35:25;;;;;;;47.13;22.08;;;;;;;3.30;100.00;101038.38;8381046;28;20050;-57
2024/01/07 09:39:25;;;;;;;49.03;21.92;;;;;;;3.25;100.00;101046.63;8382202;28;20064;-57
2024/01/07 09:43:26;;;;;;;50.22;22.20;;;;;;;3.24;100.00;101050.25;8383518;28;20040;-56
2024/01/07 09:47:27;;;;;;;48.45;22.85;;;;;;;3.28;100.00;101051.81;8383623;28;20075;-58
2024/01/07 09:51:29;;;;;;;47.42;22.23;;;;;;;3.33;100.00;101057.75;8383166;28;20071;-56
2024/01/07 09:55:37;;;;;;;47.65;23.17;;;;;;;3.30;100.00;101049.91;8384139;28;20041;-56
2024/01/07 09:59:40;;;;;;;50.97;23.45;;;;;;;3.31;100.00;101056.13;8382350;28;20525;-56
2024/01/07 10:03:40;;;;;;;43.92;20.70;;;;;;;3.32;100.00;101064.06;8382967;28;20048;-57
2024/01/07 10:07:41;;;;;;;47.85;21.27;;;;;;;3.35;100.00;101058.56;8381810;28;20039;-57
2024/01/07 10:11:43;;;;;;;46.50;21.17;;;;;;;3.41;100.00;101063.56;8377145;28;20052;-56
2024/01/07 10:15:44;;;;;;;42.85;20.40;;;;;;;3.43;100.00;101068.84;8375527;28;20201;-57
2024/01/07 10:19:46;;;;;;;43.05;20.63;;;;;;;3.35;100.00;101079.94;8380894;28;20040;-56
2024/01/07 10:23:47;;;;;;;43.05;19.98;;;;;;;3.32;100.00;101074.75;8379059;28;20068;-56
2024/01/07 10:27:47;;;;;;;40.35;19.88;;;;;;;3.23;100.00;101077.91;8379728;28;20522;-55
2024/01/07 10:31:48;;;;;;;40.95;19.10;;;;;;;3.15;100.00;101082.81;8379636;28;20053;-56
2024/01/07 10:36:01;;;;;;;43.92;20.90;;;;;;;3.16;100.00;101084.53;8379127;28;20041;-57
2024/01/07 10:40:03;;;;;;;34.97;18.02;;;;;;;3.14;100.00;101082.88;8376502;28;20191;-56
2024/01/07 10:44:05;;;;;;;36.85;18.25;;;;;;;3.17;100.00;101086.25;8380584;28;20045;-57
2024/01/07 10:48:09;;;;;;;37.75;18.08;;;;;;;3.20;100.00;101088.75;8385984;28;20556;-58
2024/01/07 10:52:11;;;;;;;28.77;15.90;;;;;;;3.20;100.00;101088.75;8387008;28;20040;-57
2024/01/07 10:56:12;;;;;;;28.15;14.27;;;;;;;3.19;100.00;101095.03;8387870;28;20032;-58
2024/01/07 11:00:22;;;;;;;22.27;12.27;;;;;;;3.13;100.00;101095.38;8386984;28;20079;-58
2024/01/07 11:04:42;;;;;;;22.77;12.70;;;;;;;3.13;100.00;101094.50;8382027;28;20131;-58
2024/01/07 11:13:00;;;;;;;23.35;12.13;;;;;;;3.05;100.00;101102.06;8396402;27;20397;-57
2024/01/07 11:17:02;;;;;;;22.30;12.48;;;;;;;3.02;100.00;101121.75;8391536;27;20047;-56
2024/01/07 11:21:03;;;;;;;22.98;14.18;;;;;;;3.05;100.00;101118.09;8396583;27;20522;-56
2024/01/07 11:25:31;;;;;;;24.98;12.93;;;;;;;3.05;100.00;101110.91;8394432;27;20399;-58
2024/01/07 11:29:32;;;;;;;25.83;14.15;;;;;;;3.05;100.00;101115.41;8390657;27;20421;-56
2024/01/07 11:33:32;;;;;;;28.08;14.77;;;;;;;3.07;99.59;101105.50;8399275;27;20095;-58
2024/01/07 11:37:33;;;;;;;24.20;13.45;;;;;;;3.09;98.36;101116.97;8388372;27;20036;-58
2024/01/07 11:41:34;;;;;;;29.48;15.27;;;;;;;3.10;97.45;101116.88;8385242;27;20548;-57
2024/01/07 11:45:34;;;;;;;26.40;14.15;;;;;;;3.13;96.80;101116.72;8383219;27;20064;-58
2024/01/07 11:49:35;;;;;;;29.38;14.75;;;;;;;3.12;95.87;101122.16;8382865;27;20079;-57
2024/01/07 11:53:35;;;;;;;24.42;12.95;;;;;;;3.11;95.30;101123.09;8397451;27;20362;-56
2024/01/07 11:57:36;;;;;;;25.30;12.32;;;;;;;3.15;95.31;101125.53;8390846;27;20040;-57
2024/01/07 12:01:36;;;;;;;24.50;13.95;;;;;;;3.19;94.75;101121.75;8384990;27;20048;-56
2024/01/07 12:05:37;;;;;;;24.42;13.63;;;;;;;3.20;93.78;101118.13;8384886;27;20040;-56
2024/01/07 12:09:38;;;;;;;26.05;13.57;;;;;;;3.22;94.25;101123.41;8386632;28;20068;-57
2024/01/07 12:13:39;;;;;;;23.52;12.75;;;;;;;3.19;93.57;101135.13;8406551;27;20064;-57
2024/01/07 12:17:40;;;;;;;24.85;14.48;;;;;;;3.06;93.97;101139.38;8385047;28;20052;-57
2024/01/07 12:21:41;;;;;;;26.83;12.95;;;;;;;3.05;94.15;101134.94;8386870;27;20064;-56
2024/01/07 12:25:42;;;;;;;27.90;14.13;;;;;;;3.02;93.79;101140.44;8360913;28;20411;-56
2024/01/07 12:29:43;;;;;;;29.88;12.82;;;;;;;3.02;93.91;101145.78;8370391;28;20044;-57
2024/01/07 12:33:43;;;;;;;25.13;12.07;;;;;;;3.03;93.87;101136.84;8369268;28;20036;-57
2024/01/07 12:37:44;;;;;;;22.83;12.90;;;;;;;3.03;93.83;101144.00;8372752;28;20060;-56
2024/01/07 12:41:44;;;;;;;24.15;12.55;;;;;;;2.99;93.16;101140.59;8367532;28;20036;-56
2024/01/07 12:45:46;;;;;;;20.27;11.20;;;;;;;3.03;93.03;101147.53;8372687;28;20048;-56
2024/01/07 12:49:46;;;;;;;26.05;11.55;;;;;;;3.01;91.60;101149.41;8370170;28;20446;-55
2024/01/07 12:53:47;;;;;;;20.85;11.73;;;;;;;2.95;91.90;101155.06;8360791;28;20102;-57
2024/01/07 12:57:47;;;;;;;21.90;10.75;;;;;;;3.01;92.35;101160.09;8366121;28;20044;-57
2024/01/07 13:01:50;;;;;;;18.85;10.40;;;;;;;2.93;92.22;101164.94;8361651;28;20061;-58
2024/01/07 13:05:51;;;;;;;19.77;10.77;;;;;;;2.97;91.61;101174.56;8366531;28;20491;-58
2024/01/07 13:09:52;;;;;;;23.05;11.18;;;;;;;2.95;91.28;101181.75;8364819;28;20060;-57
2024/01/07 13:13:52;;;;;;;17.60;10.07;;;;;;;2.93;90.77;101178.28;8370268;28;20117;-58
2024/01/07 13:17:53;;;;;;;18.23;10.18;;;;;;;2.86;91.62;101182.22;8355518;28;20044;-59
2024/01/07 13:21:55;;;;;;;17.15;9.18;;;;;;;2.74;91.28;101168.63;8366501;28;20439;-55
2024/01/07 13:25:56;;;;;;;16.58;8.93;;;;;;;2.83;89.47;101197.50;8367331;28;20044;-56
2024/01/07 13:29:56;;;;;;;17.45;9.40;;;;;;;2.81;90.16;101189.56;8368715;28;20419;-56
2024/01/07 13:33:57;;;;;;;18.00;9.73;;;;;;;2.94;90.71;101201.41;8372009;28;20494;-57
2024/01/07 13:37:58;;;;;;;18.08;9.23;;;;;;;2.90;89.60;101198.97;8363103;28;20419;-56
2024/01/07 13:41:58;;;;;;;16.88;9.32;;;;;;;2.88;88.48;101201.72;8346928;28;20275;-56
2024/01/07 13:45:58;;;;;;;13.45;8.25;;;;;;;2.79;87.80;101202.16;8364880;28;20151;-57
2024/01/07 13:49:59;;;;;;;13.85;8.13;;;;;;;2.70;86.39;101207.94;8371480;28;20041;-56
2024/01/07 13:53:59;;;;;;;13.77;8.38;;;;;;;2.66;86.03;101209.03;8369230;28;20284;-58
2024/01/07 13:58:00;;;;;;;12.55;7.55;;;;;;;2.59;86.16;101207.59;8366358;28;20041;-57
2024/01/07 14:02:02;;;;;;;12.57;7.43;;;;;;;2.69;86.06;101219.56;8380150;28;20032;-57
2024/01/07 14:06:03;;;;;;;12.80;8.68;;;;;;;2.58;85.34;101223.66;8362927;28;20047;-56
2024/01/07 14:10:05;;;;;;;13.25;8.00;;;;;;;2.60;85.21;101235.16;8367786;28;20063;-58
2024/01/07 14:14:06;;;;;;;13.90;7.63;;;;;;;2.50;84.54;101242.72;8368617;28;20024;-58
2024/01/07 14:18:06;;;;;;;9.02;7.10;;;;;;;2.44;83.79;101275.00;8367520;28;20048;-57
2024/01/07 14:22:07;;;;;;;10.75;6.35;;;;;;;2.37;83.19;101265.56;8364443;28;20052;-56
2024/01/07 14:26:07;;;;;;;13.48;8.20;;;;;;;2.36;83.72;101271.84;8364410;28;20041;-56
2024/01/07 14:30:08;;;;;;;11.95;6.88;;;;;;;2.26;83.37;101280.34;8367583;28;20029;-59
2024/01/07 14:34:08;;;;;;;10.88;6.88;;;;;;;2.12;82.26;101291.63;8373227;28;20036;-57
2024/01/07 14:38:09;;;;;;;10.85;7.10;;;;;;;2.17;82.55;101286.97;8370423;28;20043;-59
2024/01/07 14:42:10;;;;;;;8.63;6.38;;;;;;;2.07;83.13;101301.63;8368070;28;20036;-59
2024/01/07 14:46:10;;;;;;;10.35;6.68;;;;;;;2.10;82.73;101306.81;8367625;28;20554;-58
2024/01/07 14:50:10;;;;;;;10.32;6.60;;;;;;;2.05;82.54;101308.84;8369486;28;20477;-56
2024/01/07 14:54:12;;;;;;;10.68;6.65;;;;;;;2.07;82.96;101322.97;8371547;28;20043;-57
2024/01/07 14:58:13;;;;;;;9.50;6.70;;;;;;;2.07;82.27;101328.28;8369849;28;20040;-57
2024/01/07 15:02:15;;;;;;;10.25;6.80;;;;;;;1.97;83.21;101340.31;8383512;28;20530;-57
2024/01/07 15:06:15;;;;;;;10.40;6.00;;;;;;;1.91;81.60;101349.44;8414939;28;20474;-55
2024/01/07 15:10:18;;;;;;;8.60;5.60;;;;;;;1.88;81.12;101354.03;8380362;28;20037;-56
2024/01/07 15:14:19;;;;;;;11.00;5.72;;;;;;;1.90;81.42;101354.84;8383598;28;20086;-55
2024/01/07 15:18:21;;;;;;;9.80;6.15;;;;;;;1.95;81.36;101377.69;8384342;28;20045;-58
2024/01/07 15:22:22;;;;;;;9.63;5.75;;;;;;;1.90;80.19;101373.50;8413422;28;20044;-56
2024/01/07 15:26:22;;;;;;;9.57;5.50;;;;;;;1.94;81.50;101380.44;8383214;28;20518;-57
2024/01/07 15:30:23;;;;;;;7.80;5.13;;;;;;;1.85;78.69;101380.81;8382336;28;20041;-55
2024/01/07 15:34:23;;;;;;;9.70;4.75;;;;;;;1.87;78.15;101392.28;8384166;28;20041;-57
2024/01/07 15:38:24;;;;;;;9.70;5.30;;;;;;;1.80;78.31;101405.00;8382997;28;20080;-58
2024/01/07 15:42:25;;;;;;;5.97;4.60;;;;;;;1.77;77.92;101401.63;8383406;28;20067;-57
2024/01/07 15:46:26;;;;;;;5.90;4.18;;;;;;;1.74;76.54;101404.41;8382971;28;20048;-57
2024/01/07 15:50:26;;;;;;;7.95;4.45;;;;;;;1.71;77.30;101415.19;8380207;28;20041;-57
2024/01/07 15:54:27;;;;;;;6.22;4.35;;;;;;;1.79;76.95;101418.38;8383129;28;20037;-56
2024/01/07 15:58:33;;;;;;;8.40;4.55;;;;;;;1.78;75.47;101422.88;8386182;28;20060;-57
2024/01/07 16:02:34;;;;;;;7.72;3.97;;;;;;;1.77;76.22;101422.94;8376473;28;20066;-57
2024/01/07 16:06:34;;;;;;;7.18;4.38;;;;;;;1.79;76.47;101434.38;8353259;28;20328;-56
2024/01/07 16:10:34;;;;;;;5.75;3.65;;;;;;;1.75;74.83;101439.00;8364955;28;20098;-58
2024/01/07 16:14:35;;;;;;;6.30;3.67;;;;;;;1.77;74.93;101449.59;8360937;28;20570;-56
2024/01/07 16:18:36;;;;;;;5.75;3.35;;;;;;;1.68;74.62;101452.63;8375234;28;20090;-57
2024/01/07 16:22:37;;;;;;;5.68;3.60;;;;;;;1.70;74.01;101456.06;8368001;28;20518;-57
2024/01/07 16:26:42;;;;;;;5.60;3.45;;;;;;;1.75;74.42;101464.78;8369071;28;20512;-56
2024/01/07 16:30:43;;;;;;;5.90;3.20;;;;;;;1.70;73.38;101456.06;8361764;28;20144;-57
2024/01/07 16:34:43;;;;;;;5.90;3.55;;;;;;;1.72;73.74;101459.56;8369303;28;20491;-56
2024/01/07 16:38:44;;;;;;;7.95;3.33;;;;;;;1.70;74.06;101469.41;8368235;28;20522;-57
2024/01/07 16:42:44;;;;;;;4.32;3.03;;;;;;;1.76;74.03;101477.16;8367156;28;20487;-56
2024/01/07 16:46:44;;;;;;;5.30;3.95;;;;;;;1.71;73.30;101484.50;8370488;28;20174;-57
2024/01/07 16:50:50;;;;;;;6.85;3.92;;;;;;;1.72;74.09;101488.88;8360544;28;20052;-58
2024/01/07 16:54:50;;;;;;;5.78;3.60;;;;;;;1.75;74.58;101486.09;8364267;28;20036;-57
2024/01/07 16:58:55;;;;;;;8.05;4.00;;;;;;;1.69;74.55;101486.34;8368724;28;20040;-56
2024/01/07 17:02:56;;;;;;;7.33;3.97;;;;;;;1.75;74.81;101497.63;8392660;28;20726;-56
2024/01/07 17:06:57;;;;;;;5.55;3.97;;;;;;;1.79;74.16;101511.69;8362127;28;20076;-58
2024/01/07 17:10:58;;;;;;;7.80;3.95;;;;;;;1.78;74.24;101512.63;8356727;28;20533;-58
2024/01/07 17:14:58;;;;;;;5.95;4.00;;;;;;;1.80;73.66;101516.94;8368550;28;20155;-56
2024/01/07 17:18:59;;;;;;;7.22;4.03;;;;;;;1.80;74.56;101524.94;8361626;28;20391;-55
2024/01/07 17:23:00;;;;;;;5.40;3.92;;;;;;;1.80;73.60;101532.94;8364051;28;20437;-59
2024/01/07 17:27:00;;;;;;;4.75;3.40;;;;;;;1.81;73.67;101534.72;8361034;28;20041;-57
2024/01/07 17:31:01;;;;;;;5.32;3.20;;;;;;;1.80;72.09;101532.09;8353605;28;20098;-58
2024/01/07 17:35:03;;;;;;;5.03;3.25;;;;;;;1.81;71.71;101533.81;8365089;28;20037;-57
2024/01/07 17:39:09;;;;;;;4.80;3.00;;;;;;;1.87;71.12;101536.25;8385501;28;20037;-56
2024/01/07 17:43:10;;;;;;;4.93;3.20;;;;;;;1.83;70.93;101539.97;8365017;28;20440;-57
2024/01/07 17:47:10;;;;;;;3.97;2.80;;;;;;;1.82;70.88;101552.44;8364593;28;20491;-57
2024/01/07 17:51:11;;;;;;;4.00;2.83;;;;;;;1.83;70.84;101547.97;8353966;28;20391;-57
2024/01/07 17:55:12;;;;;;;3.25;2.95;;;;;;;1.79;70.96;101546.34;8361642;28;20040;-56
2024/01/07 17:59:12;;;;;;;4.95;2.83;;;;;;;1.82;71.12;101549.75;8366011;28;20048;-58
2024/01/07 18:03:13;;;;;;;5.95;3.22;;;;;;;1.83;71.14;101554.16;8367990;28;20059;-57
2024/01/07 18:07:15;;;;;;;4.15;3.30;;;;;;;1.91;71.12;101559.19;8358987;28;20048;-57
2024/01/07 18:11:15;;;;;;;6.35;2.90;;;;;;;1.88;71.54;101562.84;8365609;28;20051;-57
2024/01/07 18:15:16;;;;;;;6.13;3.50;;;;;;;1.92;70.45;101566.25;8347527;28;20047;-59
2024/01/07 18:19:16;;;;;;;4.90;3.50;;;;;;;1.94;69.33;101572.41;8360500;28;20128;-55
2024/01/07 18:23:18;;;;;;;3.85;3.08;;;;;;;1.93;69.44;101573.34;8356167;28;20049;-58
2024/01/07 18:27:20;;;;;;;4.78;3.30;;;;;;;1.90;69.51;101565.47;8355103;28;20570;-57